Dillard, Oregon
Current Conditions -  °F | °C
As of 4:16 AM on Monday 20 Oct 2014 (Local Time) from KRBG Reporting Station
Light Rain Light Rain  
Wind Chill: 58°   Ceiling: 4100
Heat Index: 58°   Visibility: 4mi
Dew Point: 56°   Wind: 0mph
Humidity: 93%   Direction: NA
Pressure: 29.77"   Gusts: NA
Location:  43.1°N, 123.43°W
Report Text: KRBG 201116Z AUTO 00000KT 4SM -RA BR OVC041 14/13 A2977 RMK AO2 P0003 T01440133 $
Loading
Personal Weather Stations






























Interactive Weather Map
Tropical Storm Tracking
New forecast layout! Learn more

10-Day Weather Forecast

Advertisements
Track Severe Weather on mobile